Indiana Beach, Indiana
Current Conditions -  °F | °C
As of 3:55 PM on Sunday 23 Nov 2014 (Local Time) from KMCX Reporting Station
Light Rain Light Rain  
Wind Chill: 50°   Ceiling: 500
Heat Index: 50°   Visibility: 5mi
Dew Point: 49°   Wind: 6mph
Humidity: 98%   Direction: 150°SSE
Pressure: 29.54"   Gusts: NA
Location:  40.8005°N, 86.6926°W
Report Text: KMCX 232055Z AUTO 15005KT 5SM -RA OVC005 10/10 A2954 RMK AO2 P0004 60005 T01000097
Loading
Personal Weather Stations






























Interactive Weather Map New forecast layout! Learn more

10-Day Weather Forecast

Advertisements
Track Severe Weather on mobile